sensor_id;sensor_type;location;lat;lon;timestamp;pressure;altitude;pressure_sealevel;temperature;humidity
65534;BME280;53640;55.838;37.184;2022-08-11T00:00:48;99905.72;;;15.43;44.65
65534;BME280;53640;55.838;37.184;2022-08-11T00:03:15;100020.16;;;16.15;45.09
65534;BME280;53640;55.838;37.184;2022-08-11T00:05:49;100031.31;;;16.13;45.25
65534;BME280;53640;55.838;37.184;2022-08-11T00:08:24;99977.53;;;15.78;44.93
65534;BME280;53640;55.838;37.184;2022-08-11T00:10:59;100010.06;;;15.92;45.10
65534;BME280;53640;55.838;37.184;2022-08-11T00:13:37;99997.59;;;15.84;45.40
65534;BME280;53640;55.838;37.184;2022-08-11T00:16:13;100025.50;;;15.98;45.14
65534;BME280;53640;55.838;37.184;2022-08-11T00:18:46;99932.63;;;15.39;45.12
65534;BME280;53640;55.838;37.184;2022-08-11T00:21:16;100039.03;;;16.04;45.11
65534;BME280;53640;55.838;37.184;2022-08-11T00:23:59;100026.81;;;15.95;45.10
65534;BME280;53640;55.838;37.184;2022-08-11T00:26:27;100016.22;;;15.75;44.96
65534;BME280;53640;55.838;37.184;2022-08-11T00:28:54;100035.94;;;15.77;45.15
65534;BME280;53640;55.838;37.184;2022-08-11T00:31:29;100053.84;;;15.73;45.37
65534;BME280;53640;55.838;37.184;2022-08-11T00:33:58;100049.78;;;15.64;45.67
65534;BME280;53640;55.838;37.184;2022-08-11T00:36:29;100037.44;;;15.50;45.60
65534;BME280;53640;55.838;37.184;2022-08-11T00:39:06;100030.03;;;15.38;45.90
65534;BME280;53640;55.838;37.184;2022-08-11T01:00:13;100060.16;;;14.83;47.10
65534;BME280;53640;55.838;37.184;2022-08-11T01:20:06;100059.22;;;14.53;47.91
65534;BME280;53640;55.838;37.184;2022-08-11T01:23:03;100072.41;;;14.56;47.49
65534;BME280;53640;55.838;37.184;2022-08-11T01:46:03;100092.44;;;14.61;47.56
65534;BME280;53640;55.838;37.184;2022-08-11T01:48:41;100075.72;;;14.58;47.71
65534;BME280;53640;55.838;37.184;2022-08-11T01:54:06;100092.34;;;14.75;47.54
65534;BME280;53640;55.838;37.184;2022-08-11T01:59:53;100057.44;;;14.65;47.33
65534;BME280;53640;55.838;37.184;2022-08-11T02:02:21;100099.28;;;14.89;47.10
65534;BME280;53640;55.838;37.184;2022-08-11T02:08:23;100094.81;;;14.95;47.02
65534;BME280;53640;55.838;37.184;2022-08-11T02:11:24;100101.53;;;14.92;46.58
65534;BME280;53640;55.838;37.184;2022-08-11T02:14:22;100105.09;;;14.93;46.97
65534;BME280;53640;55.838;37.184;2022-08-11T02:25:35;100069.50;;;14.51;46.90
65534;BME280;53640;55.838;37.184;2022-08-11T02:28:04;100098.44;;;14.70;47.06
65534;BME280;53640;55.838;37.184;2022-08-11T02:30:38;100057.47;;;14.40;47.45
65534;BME280;53640;55.838;37.184;2022-08-11T02:33:19;100090.22;;;14.52;47.07
65534;BME280;53640;55.838;37.184;2022-08-11T02:36:15;100106.50;;;14.58;47.48
65534;BME280;53640;55.838;37.184;2022-08-11T02:38:52;100102.38;;;14.56;47.54
65534;BME280;53640;55.838;37.184;2022-08-11T02:41:25;100069.72;;;14.31;47.27
65534;BME280;53640;55.838;37.184;2022-08-11T02:44:50;100106.19;;;14.48;47.74
65534;BME280;53640;55.838;37.184;2022-08-11T02:50:40;100117.19;;;14.41;47.87
65534;BME280;53640;55.838;37.184;2022-08-11T02:53:21;100124.53;;;14.41;47.82
65534;BME280;53640;55.838;37.184;2022-08-11T02:58:35;100087.63;;;14.20;48.10
65534;BME280;53640;55.838;37.184;2022-08-11T03:01:17;100131.63;;;14.42;48.39
65534;BME280;53640;55.838;37.184;2022-08-11T03:03:56;100115.50;;;14.40;47.89
65534;BME280;53640;55.838;37.184;2022-08-11T03:06:34;100118.22;;;14.40;48.15
65534;BME280;53640;55.838;37.184;2022-08-11T03:09:18;100086.16;;;14.17;48.04
65534;BME280;53640;55.838;37.184;2022-08-11T03:12:18;100124.28;;;14.42;48.09
65534;BME280;53640;55.838;37.184;2022-08-11T03:18:14;100131.84;;;14.40;48.18
65534;BME280;53640;55.838;37.184;2022-08-11T03:21:16;100125.03;;;14.31;48.34
65534;BME280;53640;55.838;37.184;2022-08-11T03:24:00;100139.78;;;14.42;48.65
65534;BME280;53640;55.838;37.184;2022-08-11T03:29:41;100137.47;;;14.46;48.43
65534;BME280;53640;55.838;37.184;2022-08-11T03:32:20;100137.47;;;14.46;48.59
65534;BME280;53640;55.838;37.184;2022-08-11T03:34:51;100095.13;;;14.25;48.43
65534;BME280;53640;55.838;37.184;2022-08-11T03:37:44;100112.41;;;14.37;48.61
65534;BME280;53640;55.838;37.184;2022-08-11T03:40:40;100144.91;;;14.57;48.49
65534;BME280;53640;55.838;37.184;2022-08-11T03:52:12;100159.47;;;14.69;48.56
65534;BME280;53640;55.838;37.184;2022-08-11T03:55:03;100167.78;;;14.74;48.58
65534;BME280;53640;55.838;37.184;2022-08-11T04:00:22;100101.13;;;14.52;48.49
65534;BME280;53640;55.838;37.184;2022-08-11T04:03:19;100151.53;;;14.86;48.85
65534;BME280;53640;55.838;37.184;2022-08-11T04:14:49;100140.09;;;14.77;49.08
65534;BME280;53640;55.838;37.184;2022-08-11T04:24:22;100147.81;;;14.80;49.08
65534;BME280;53640;55.838;37.184;2022-08-11T04:29:44;100152.22;;;15.00;49.01
65534;BME280;53640;55.838;37.184;2022-08-11T04:32:47;100150.03;;;15.08;48.93
65534;BME280;53640;55.838;37.184;2022-08-11T04:38:30;100154.47;;;15.21;48.79
65534;BME280;53640;55.838;37.184;2022-08-11T04:44:25;100151.34;;;15.36;48.78
65534;BME280;53640;55.838;37.184;2022-08-11T04:47:31;100149.38;;;15.43;48.44
65534;BME280;53640;55.838;37.184;2022-08-11T04:50:44;100149.50;;;15.48;48.32
65534;BME280;53640;55.838;37.184;2022-08-11T04:56:25;100129.19;;;15.63;48.50
65534;BME280;53640;55.838;37.184;2022-08-11T05:11:15;100114.03;;;15.90;47.47
65534;BME280;53640;55.838;37.184;2022-08-11T05:13:45;100151.16;;;16.21;47.82
65534;BME280;53640;55.838;37.184;2022-08-11T05:16:53;100152.88;;;16.34;47.83
65534;BME280;53640;55.838;37.184;2022-08-11T05:19:45;100128.59;;;16.26;47.30
65534;BME280;53640;55.838;37.184;2022-08-11T05:22:32;100153.47;;;16.48;47.19
65534;BME280;53640;55.838;37.184;2022-08-11T05:25:24;100121.63;;;16.42;47.17
65534;BME280;53640;55.838;37.184;2022-08-11T05:28:13;100151.09;;;16.63;46.93
65534;BME280;53640;55.838;37.184;2022-08-11T05:31:02;100139.44;;;16.68;46.98
65534;BME280;53640;55.838;37.184;2022-08-11T05:33:58;100150.81;;;16.88;46.92
65534;BME280;53640;55.838;37.184;2022-08-11T05:36:52;100146.28;;;16.94;46.58
65534;BME280;53640;55.838;37.184;2022-08-11T05:39:25;100133.09;;;16.91;46.24
65534;BME280;53640;55.838;37.184;2022-08-11T05:42:14;100112.88;;;16.92;46.41
65534;BME280;53640;55.838;37.184;2022-08-11T05:45:04;100146.97;;;17.24;46.12
65534;BME280;53640;55.838;37.184;2022-08-11T05:47:53;100118.44;;;17.20;45.63
65534;BME280;53640;55.838;37.184;2022-08-11T05:50:39;100155.44;;;17.51;45.41
65534;BME280;53640;55.838;37.184;2022-08-11T05:53:24;100137.28;;;17.62;45.02
65534;BME280;53640;55.838;37.184;2022-08-11T05:56:09;100150.44;;;17.77;45.18
65534;BME280;53640;55.838;37.184;2022-08-11T05:58:52;100143.78;;;17.90;45.09
65534;BME280;53640;55.838;37.184;2022-08-11T06:01:22;100108.59;;;17.82;44.75
65534;BME280;53640;55.838;37.184;2022-08-11T06:03:52;100150.34;;;18.17;44.55
65534;BME280;53640;55.838;37.184;2022-08-11T06:06:45;100117.94;;;18.14;44.38
65534;BME280;53640;55.838;37.184;2022-08-11T06:09:12;100130.38;;;18.39;43.48
65534;BME280;53640;55.838;37.184;2022-08-11T06:11:41;100138.78;;;18.49;43.34
65534;BME280;53640;55.838;37.184;2022-08-11T06:14:09;100107.94;;;18.42;42.78
65534;BME280;53640;55.838;37.184;2022-08-11T06:16:36;100135.09;;;18.77;42.79
65534;BME280;53640;55.838;37.184;2022-08-11T06:19:04;100109.31;;;18.78;42.30
65534;BME280;53640;55.838;37.184;2022-08-11T06:21:34;100150.28;;;19.29;41.67
65534;BME280;53640;55.838;37.184;2022-08-11T06:24:09;100145.72;;;19.56;40.69
65534;BME280;53640;55.838;37.184;2022-08-11T06:26:37;100133.78;;;19.73;40.27
65534;BME280;53640;55.838;37.184;2022-08-11T06:29:04;100119.66;;;19.91;40.15
65534;BME280;53640;55.838;37.184;2022-08-11T06:31:32;100124.00;;;20.14;39.69
65534;BME280;53640;55.838;37.184;2022-08-11T06:36:59;100114.63;;;20.47;38.43
65534;BME280;53640;55.838;37.184;2022-08-11T06:39:48;100155.38;;;20.98;38.25
65534;BME280;53640;55.838;37.184;2022-08-11T06:42:35;100086.72;;;20.76;37.17
65534;BME280;53640;55.838;37.184;2022-08-11T06:45:33;100154.69;;;21.28;37.39
65534;BME280;53640;55.838;37.184;2022-08-11T06:48:03;100154.72;;;21.33;37.26
65534;BME280;53640;55.838;37.184;2022-08-11T06:50:31;100160.78;;;21.35;36.96
65534;BME280;53640;55.838;37.184;2022-08-11T06:53:18;100162.69;;;21.34;37.12
65534;BME280;53640;55.838;37.184;2022-08-11T06:55:47;100136.75;;;21.25;36.97
65534;BME280;53640;55.838;37.184;2022-08-11T06:58:36;100123.56;;;21.22;37.33
65534;BME280;53640;55.838;37.184;2022-08-11T07:01:31;100119.16;;;21.26;36.23
65534;BME280;53640;55.838;37.184;2022-08-11T07:04:05;100073.34;;;20.95;36.04
65534;BME280;53640;55.838;37.184;2022-08-11T07:12:40;100087.72;;;21.17;36.64
65534;BME280;53640;55.838;37.184;2022-08-11T07:15:34;100128.00;;;21.44;36.25
65534;BME280;53640;55.838;37.184;2022-08-11T07:18:20;100153.44;;;21.61;36.11
65534;BME280;53640;55.838;37.184;2022-08-11T07:21:12;100132.47;;;21.55;35.80
65534;BME280;53640;55.838;37.184;2022-08-11T07:24:00;100146.56;;;21.69;35.92
65534;BME280;53640;55.838;37.184;2022-08-11T07:26:50;100152.38;;;21.72;35.47
65534;BME280;53640;55.838;37.184;2022-08-11T07:29:37;100146.34;;;21.91;35.48
65534;BME280;53640;55.838;37.184;2022-08-11T07:32:24;100115.16;;;21.64;35.59
65534;BME280;53640;55.838;37.184;2022-08-11T07:34:57;100151.84;;;21.91;35.18
65534;BME280;53640;55.838;37.184;2022-08-11T07:37:28;100103.31;;;21.64;35.16
65534;BME280;53640;55.838;37.184;2022-08-11T07:39:58;100112.41;;;21.80;34.65
65534;BME280;53640;55.838;37.184;2022-08-11T07:42:30;100141.66;;;22.06;34.38
65534;BME280;53640;55.838;37.184;2022-08-11T07:44:58;100128.69;;;22.02;34.09
65534;BME280;53640;55.838;37.184;2022-08-11T07:47:45;100119.88;;;22.10;33.36
65534;BME280;53640;55.838;37.184;2022-08-11T07:50:31;100149.13;;;22.36;33.53
65534;BME280;53640;55.838;37.184;2022-08-11T07:53:17;100117.41;;;22.29;33.43
65534;BME280;53640;55.838;37.184;2022-08-11T07:55:47;100107.75;;;22.31;33.21
65534;BME280;53640;55.838;37.184;2022-08-11T07:58:15;100122.88;;;22.54;32.54
65534;BME280;53640;55.838;37.184;2022-08-11T08:01:00;100150.16;;;22.92;32.39
65534;BME280;53640;55.838;37.184;2022-08-11T08:03:46;100125.28;;;22.97;32.15
65534;BME280;53640;55.838;37.184;2022-08-11T08:06:32;100133.84;;;22.95;32.03
65534;BME280;53640;55.838;37.184;2022-08-11T08:09:19;100150.34;;;23.05;32.37
65534;BME280;53640;55.838;37.184;2022-08-11T08:12:06;100126.34;;;23.01;32.33
65534;BME280;53640;55.838;37.184;2022-08-11T08:14:52;100136.56;;;23.11;32.38
65534;BME280;53640;55.838;37.184;2022-08-11T08:17:40;100134.88;;;23.15;32.12
65534;BME280;53640;55.838;37.184;2022-08-11T08:20:20;100142.22;;;23.35;31.81
65534;BME280;53640;55.838;37.184;2022-08-11T08:22:53;100121.53;;;23.37;32.25
65534;BME280;53640;55.838;37.184;2022-08-11T08:25:26;100150.56;;;23.79;31.19
65534;BME280;53640;55.838;37.184;2022-08-11T08:27:54;100146.31;;;23.97;29.69
65534;BME280;53640;55.838;37.184;2022-08-11T08:30:24;100135.78;;;23.99;29.57
65534;BME280;53640;55.838;37.184;2022-08-11T08:33:17;100119.69;;;24.06;28.39
65534;BME280;53640;55.838;37.184;2022-08-11T08:35:47;100090.88;;;24.12;27.72
65534;BME280;53640;55.838;37.184;2022-08-11T08:38:14;100119.50;;;24.56;28.31
65534;BME280;53640;55.838;37.184;2022-08-11T08:40:42;100082.38;;;24.62;27.55
65534;BME280;53640;55.838;37.184;2022-08-11T08:43:14;100125.22;;;25.12;26.43
65534;BME280;53640;55.838;37.184;2022-08-11T08:45:42;100095.94;;;25.30;26.10
65534;BME280;53640;55.838;37.184;2022-08-11T08:48:16;100127.66;;;25.62;25.41
65534;BME280;53640;55.838;37.184;2022-08-11T08:51:00;100137.25;;;26.07;25.20
65534;BME280;53640;55.838;37.184;2022-08-11T08:53:49;100112.44;;;26.30;24.72
65534;BME280;53640;55.838;37.184;2022-08-11T08:56:17;100086.66;;;26.43;22.77
65534;BME280;53640;55.838;37.184;2022-08-11T08:58:47;100101.41;;;26.71;22.94
65534;BME280;53640;55.838;37.184;2022-08-11T09:01:15;100124.16;;;27.01;23.31
65534;BME280;53640;55.838;37.184;2022-08-11T09:04:06;100089.88;;;27.05;23.10
65534;BME280;53640;55.838;37.184;2022-08-11T09:06:36;100102.38;;;27.30;22.55
65534;BME280;53640;55.838;37.184;2022-08-11T09:09:08;100121.91;;;27.67;23.29
65534;BME280;53640;55.838;37.184;2022-08-11T09:11:38;100093.56;;;27.64;23.30
65534;BME280;53640;55.838;37.184;2022-08-11T09:14:23;100108.34;;;28.10;23.00
65534;BME280;53640;55.838;37.184;2022-08-11T09:16:51;100119.38;;;28.46;23.09
65534;BME280;53640;55.838;37.184;2022-08-11T09:19:19;100123.25;;;28.59;22.28
65534;BME280;53640;55.838;37.184;2022-08-11T09:21:48;100061.75;;;28.24;22.39
65534;BME280;53640;55.838;37.184;2022-08-11T09:24:36;100117.00;;;28.62;21.83
65534;BME280;53640;55.838;37.184;2022-08-11T09:27:26;100081.94;;;28.61;21.62
65534;BME280;53640;55.838;37.184;2022-08-11T09:29:53;100099.53;;;28.79;21.13
65534;BME280;53640;55.838;37.184;2022-08-11T09:32:20;100118.53;;;29.08;21.78
65534;BME280;53640;55.838;37.184;2022-08-11T09:34:49;100116.75;;;29.29;21.17
65534;BME280;53640;55.838;37.184;2022-08-11T09:37:17;100099.09;;;29.51;20.69
65534;BME280;53640;55.838;37.184;2022-08-11T09:40:05;100110.06;;;29.83;20.27
65534;BME280;53640;55.838;37.184;2022-08-11T09:42:52;100114.00;;;30.16;20.28
65534;BME280;53640;55.838;37.184;2022-08-11T09:45:38;100111.13;;;30.42;19.85
65534;BME280;53640;55.838;37.184;2022-08-11T09:48:04;100092.06;;;30.53;18.57
65534;BME280;53640;55.838;37.184;2022-08-11T09:50:33;100083.22;;;30.51;19.66
65534;BME280;53640;55.838;37.184;2022-08-11T09:53:00;100120.38;;;30.34;20.31
65534;BME280;53640;55.838;37.184;2022-08-11T09:55:32;100107.94;;;29.71;20.10
65534;BME280;53640;55.838;37.184;2022-08-11T09:57:59;100121.19;;;29.30;20.48
65534;BME280;53640;55.838;37.184;2022-08-11T10:00:47;100090.47;;;28.65;21.12
65534;BME280;53640;55.838;37.184;2022-08-11T10:03:20;100115.53;;;28.33;21.51
65534;BME280;53640;55.838;37.184;2022-08-11T10:05:53;100114.53;;;27.84;22.09
65534;BME280;53640;55.838;37.184;2022-08-11T10:08:40;100096.94;;;27.25;22.42
65534;BME280;53640;55.838;37.184;2022-08-11T10:11:11;100081.69;;;26.86;23.24
65534;BME280;53640;55.838;37.184;2022-08-11T10:13:44;100108.06;;;26.70;24.20
65534;BME280;53640;55.838;37.184;2022-08-11T10:16:31;100091.78;;;26.36;24.29
65534;BME280;53640;55.838;37.184;2022-08-11T10:19:02;100099.28;;;26.35;24.87
65534;BME280;53640;55.838;37.184;2022-08-11T10:21:39;100076.47;;;26.06;24.51
65534;BME280;53640;55.838;37.184;2022-08-11T10:24:08;100093.94;;;26.06;24.45
65534;BME280;53640;55.838;37.184;2022-08-11T10:26:55;100095.63;;;26.07;24.46
65534;BME280;53640;55.838;37.184;2022-08-11T10:29:51;100089.31;;;26.02;24.88
65534;BME280;53640;55.838;37.184;2022-08-11T10:32:36;100097.41;;;25.98;24.58
65534;BME280;53640;55.838;37.184;2022-08-11T10:35:22;100069.59;;;26.50;23.92
65534;BME280;53640;55.838;37.184;2022-08-11T10:37:53;100065.13;;;27.31;23.61
65534;BME280;53640;55.838;37.184;2022-08-11T10:40:21;100089.94;;;28.31;22.13
65534;BME280;53640;55.838;37.184;2022-08-11T10:42:55;100071.22;;;28.94;21.04
65534;BME280;53640;55.838;37.184;2022-08-11T10:45:33;100046.25;;;29.55;20.53
65534;BME280;53640;55.838;37.184;2022-08-11T10:48:20;100077.69;;;30.25;20.06
65534;BME280;53640;55.838;37.184;2022-08-11T10:50:48;100075.53;;;30.69;19.34
65534;BME280;53640;55.838;37.184;2022-08-11T10:53:39;100085.38;;;31.34;19.59
65534;BME280;53640;55.838;37.184;2022-08-11T10:56:27;100077.84;;;31.89;18.85
65534;BME280;53640;55.838;37.184;2022-08-11T10:59:13;100055.56;;;32.26;17.93
65534;BME280;53640;55.838;37.184;2022-08-11T11:01:41;100051.78;;;32.67;17.79
65534;BME280;53640;55.838;37.184;2022-08-11T11:04:17;100045.34;;;32.91;16.97
65534;BME280;53640;55.838;37.184;2022-08-11T11:06:54;100076.84;;;32.39;17.44
65534;BME280;53640;55.838;37.184;2022-08-11T11:09:31;100042.16;;;31.53;17.59
65534;BME280;53640;55.838;37.184;2022-08-11T11:12:03;100059.88;;;31.57;18.03
65534;BME280;53640;55.838;37.184;2022-08-11T11:14:52;100069.00;;;31.87;17.49
65534;BME280;53640;55.838;37.184;2022-08-11T11:17:42;100070.38;;;32.14;17.23
65534;BME280;53640;55.838;37.184;2022-08-11T11:20:57;100070.56;;;32.42;16.78
65534;BME280;53640;55.838;37.184;2022-08-11T11:23:39;100068.03;;;32.61;17.18
65534;BME280;53640;55.838;37.184;2022-08-11T11:31:57;100058.22;;;32.43;17.63
65534;BME280;53640;55.838;37.184;2022-08-11T11:37:03;100022.53;;;31.86;17.35
65534;BME280;53640;55.838;37.184;2022-08-11T11:39:31;100009.97;;;31.92;17.53
65534;BME280;53640;55.838;37.184;2022-08-11T11:42:04;100022.59;;;32.43;17.61
65534;BME280;53640;55.838;37.184;2022-08-11T11:44:31;100010.06;;;32.90;16.63
65534;BME280;53640;55.838;37.184;2022-08-11T11:47:00;100017.25;;;33.15;15.93
65534;BME280;53640;55.838;37.184;2022-08-11T11:49:29;100022.78;;;33.52;15.69
65534;BME280;53640;55.838;37.184;2022-08-11T11:51:58;99986.97;;;33.77;15.47
65534;BME280;53640;55.838;37.184;2022-08-11T11:54:29;100028.03;;;34.42;15.08
65534;BME280;53640;55.838;37.184;2022-08-11T11:56:57;100044.69;;;34.82;14.82
65534;BME280;53640;55.838;37.184;2022-08-11T11:59:43;100016.31;;;35.06;14.11
65534;BME280;53640;55.838;37.184;2022-08-11T12:02:36;100010.03;;;35.13;13.95
65534;BME280;53640;55.838;37.184;2022-08-11T12:05:07;100011.78;;;35.37;14.28
65534;BME280;53640;55.838;37.184;2022-08-11T12:07:35;100040.66;;;35.73;14.43
65534;BME280;53640;55.838;37.184;2022-08-11T12:10:21;100008.88;;;35.72;14.65
65534;BME280;53640;55.838;37.184;2022-08-11T12:12:48;99994.44;;;35.74;14.01
65534;BME280;53640;55.838;37.184;2022-08-11T12:15:34;100003.25;;;35.95;14.10
65534;BME280;53640;55.838;37.184;2022-08-11T12:18:02;100000.00;;;35.93;14.07
65534;BME280;53640;55.838;37.184;2022-08-11T12:20:30;100022.84;;;36.08;13.80
65534;BME280;53640;55.838;37.184;2022-08-11T12:22:57;99996.59;;;36.04;13.76
65534;BME280;53640;55.838;37.184;2022-08-11T12:25:43;100016.94;;;36.39;13.45
65534;BME280;53640;55.838;37.184;2022-08-11T12:28:28;100024.13;;;36.37;13.51
65534;BME280;53640;55.838;37.184;2022-08-11T12:30:56;100015.13;;;36.28;13.74
65534;BME280;53640;55.838;37.184;2022-08-11T12:33:22;100022.84;;;36.54;13.38
65534;BME280;53640;55.838;37.184;2022-08-11T12:35:55;99986.88;;;36.24;13.31
65534;BME280;53640;55.838;37.184;2022-08-11T12:38:23;100019.22;;;36.30;13.32
65534;BME280;53640;55.838;37.184;2022-08-11T12:40:51;100019.84;;;36.20;13.55
65534;BME280;53640;55.838;37.184;2022-08-11T12:43:42;100027.97;;;36.25;13.62
65534;BME280;53640;55.838;37.184;2022-08-11T12:46:30;100035.34;;;36.33;13.44
65534;BME280;53640;55.838;37.184;2022-08-11T12:49:01;100022.53;;;36.36;12.95
65534;BME280;53640;55.838;37.184;2022-08-11T12:51:53;99993.38;;;36.28;13.32
65534;BME280;53640;55.838;37.184;2022-08-11T12:54:50;100026.25;;;36.66;13.57
65534;BME280;53640;55.838;37.184;2022-08-11T12:57:38;99976.91;;;36.30;13.21
65534;BME280;53640;55.838;37.184;2022-08-11T13:00:31;99898.88;;;35.65;13.23
65534;BME280;53640;55.838;37.184;2022-08-11T13:03:19;99954.00;;;36.09;13.49
65534;BME280;53640;55.838;37.184;2022-08-11T13:06:04;99919.47;;;35.92;13.21
65534;BME280;53640;55.838;37.184;2022-08-11T13:08:33;99949.03;;;36.25;13.50
65534;BME280;53640;55.838;37.184;2022-08-11T13:11:03;99987.06;;;36.35;13.13
65534;BME280;53640;55.838;37.184;2022-08-11T13:13:51;99951.66;;;36.14;13.54
65534;BME280;53640;55.838;37.184;2022-08-11T13:16:31;100006.63;;;36.47;13.40
65534;BME280;53640;55.838;37.184;2022-08-11T13:19:19;99983.50;;;36.38;13.13
65534;BME280;53640;55.838;37.184;2022-08-11T13:21:48;99998.63;;;36.53;13.77
65534;BME280;53640;55.838;37.184;2022-08-11T13:24:15;100004.25;;;36.49;13.43
65534;BME280;53640;55.838;37.184;2022-08-11T13:26:44;100015.97;;;36.05;13.24
65534;BME280;53640;55.838;37.184;2022-08-11T13:29:11;99983.63;;;35.18;13.64
65534;BME280;53640;55.838;37.184;2022-08-11T13:31:40;100010.44;;;34.76;14.62
65534;BME280;53640;55.838;37.184;2022-08-11T13:34:08;100009.41;;;34.05;15.04
65534;BME280;53640;55.838;37.184;2022-08-11T13:36:35;100010.97;;;33.47;15.45
65534;BME280;53640;55.838;37.184;2022-08-11T13:39:02;99994.97;;;32.82;15.84
65534;BME280;53640;55.838;37.184;2022-08-11T13:41:29;100009.13;;;32.37;15.86
65534;BME280;53640;55.838;37.184;2022-08-11T13:44:09;99989.94;;;31.69;16.46
65534;BME280;53640;55.838;37.184;2022-08-11T13:46:38;99978.81;;;31.06;17.25
65534;BME280;53640;55.838;37.184;2022-08-11T13:49:05;99967.13;;;30.54;17.69
65534;BME280;53640;55.838;37.184;2022-08-11T13:51:35;100009.44;;;30.35;18.10
65534;BME280;53640;55.838;37.184;2022-08-11T13:54:08;99993.00;;;29.86;18.54
65534;BME280;53640;55.838;37.184;2022-08-11T13:56:41;99984.69;;;29.43;18.67
65534;BME280;53640;55.838;37.184;2022-08-11T13:59:09;100001.41;;;29.25;18.64
65534;BME280;53640;55.838;37.184;2022-08-11T14:01:41;99993.66;;;28.96;19.29
65534;BME280;53640;55.838;37.184;2022-08-11T14:04:10;99996.44;;;28.70;19.80
65534;BME280;53640;55.838;37.184;2022-08-11T14:06:44;99998.47;;;28.47;20.06
65534;BME280;53640;55.838;37.184;2022-08-11T14:09:12;99995.72;;;28.25;19.92
65534;BME280;53640;55.838;37.184;2022-08-11T14:11:42;99990.88;;;27.99;20.07
65534;BME280;53640;55.838;37.184;2022-08-11T14:14:31;99987.16;;;27.81;20.40
65534;BME280;53640;55.838;37.184;2022-08-11T14:17:03;99975.66;;;27.52;20.72
65534;BME280;53640;55.838;37.184;2022-08-11T14:19:35;99975.09;;;27.41;20.99
65534;BME280;53640;55.838;37.184;2022-08-11T14:22:03;99966.72;;;27.19;21.01
65534;BME280;53640;55.838;37.184;2022-08-11T14:24:37;99952.31;;;26.94;21.40
65534;BME280;53640;55.838;37.184;2022-08-11T14:27:06;99952.72;;;26.87;21.70
65534;BME280;53640;55.838;37.184;2022-08-11T14:29:34;99964.66;;;26.88;21.69
65534;BME280;53640;55.838;37.184;2022-08-11T14:32:09;99943.16;;;26.66;21.48
65534;BME280;53640;55.838;37.184;2022-08-11T14:34:44;99918.44;;;26.42;21.57
65534;BME280;53640;55.838;37.184;2022-08-11T14:37:20;99964.44;;;26.71;21.47
65534;BME280;53640;55.838;37.184;2022-08-11T14:39:51;99957.38;;;26.51;21.64
65534;BME280;53640;55.838;37.184;2022-08-11T14:42:24;99956.50;;;26.41;21.97
65534;BME280;53640;55.838;37.184;2022-08-11T14:45:12;99967.34;;;26.52;22.33
65534;BME280;53640;55.838;37.184;2022-08-11T14:48:00;99966.44;;;26.42;22.83
65534;BME280;53640;55.838;37.184;2022-08-11T14:50:31;99954.94;;;26.35;22.52
65534;BME280;53640;55.838;37.184;2022-08-11T14:53:00;99954.50;;;26.28;22.28
65534;BME280;53640;55.838;37.184;2022-08-11T14:55:30;99939.28;;;26.12;22.16
65534;BME280;53640;55.838;37.184;2022-08-11T14:58:18;99942.56;;;26.14;22.93
65534;BME280;53640;55.838;37.184;2022-08-11T15:00:45;99905.34;;;25.87;22.98
65534;BME280;53640;55.838;37.184;2022-08-11T15:03:13;99908.13;;;25.87;23.37
65534;BME280;53640;55.838;37.184;2022-08-11T15:05:44;99959.84;;;26.11;23.66
65534;BME280;53640;55.838;37.184;2022-08-11T15:08:13;99953.47;;;26.10;23.32
65534;BME280;53640;55.838;37.184;2022-08-11T15:10:40;99952.13;;;26.08;22.87
65534;BME280;53640;55.838;37.184;2022-08-11T15:13:07;99914.94;;;25.81;23.31
65534;BME280;53640;55.838;37.184;2022-08-11T15:15:35;99914.41;;;25.79;23.32
65534;BME280;53640;55.838;37.184;2022-08-11T15:18:22;99919.66;;;25.81;23.16
65534;BME280;53640;55.838;37.184;2022-08-11T15:20:49;99948.00;;;25.91;23.21
65534;BME280;53640;55.838;37.184;2022-08-11T15:23:35;99928.59;;;25.78;23.44
65534;BME280;53640;55.838;37.184;2022-08-11T15:26:38;99923.06;;;25.72;22.99
65534;BME280;53640;55.838;37.184;2022-08-11T15:29:42;99913.31;;;25.61;22.91
65534;BME280;53640;55.838;37.184;2022-08-11T15:32:30;99954.56;;;25.82;22.96
65534;BME280;53640;55.838;37.184;2022-08-11T15:35:17;99932.91;;;25.65;23.36
65534;BME280;53640;55.838;37.184;2022-08-11T15:38:03;99963.56;;;25.73;23.63
65534;BME280;53640;55.838;37.184;2022-08-11T15:40:34;99950.19;;;25.62;23.38
65534;BME280;53640;55.838;37.184;2022-08-11T15:43:28;99916.97;;;25.43;23.84
65534;BME280;53640;55.838;37.184;2022-08-11T15:46:43;99948.53;;;25.61;24.08
65534;BME280;53640;55.838;37.184;2022-08-11T15:49:13;99951.63;;;25.59;24.05
65534;BME280;53640;55.838;37.184;2022-08-11T15:51:43;99949.75;;;25.55;23.92
65534;BME280;53640;55.838;37.184;2022-08-11T15:54:15;99913.03;;;25.30;24.20
65534;BME280;53640;55.838;37.184;2022-08-11T15:56:48;99949.53;;;25.51;24.45
65534;BME280;53640;55.838;37.184;2022-08-11T15:59:17;99942.22;;;25.41;25.04
65534;BME280;53640;55.838;37.184;2022-08-11T16:02:03;99916.41;;;25.27;24.70
65534;BME280;53640;55.838;37.184;2022-08-11T16:04:52;99942.75;;;25.43;24.72
65534;BME280;53640;55.838;37.184;2022-08-11T16:07:21;99941.19;;;25.37;24.38
65534;BME280;53640;55.838;37.184;2022-08-11T16:09:55;99929.16;;;25.28;24.34
65534;BME280;53640;55.838;37.184;2022-08-11T16:12:28;99921.72;;;25.23;24.96
65534;BME280;53640;55.838;37.184;2022-08-11T16:15:00;99933.84;;;25.28;25.16